Time;durP1;ratioP1;P1;durP2;ratioP2;P2;SDS_P1;SDS_P2;PMS_P1;PMS_P2;Temp;Humidity;BMP_temperature;BMP_pressure;BME280_temperature;BME280_humidity;BME280_pressure;Samples;Min_cycle;Max_cycle;Signal;HPM_P1;HPM_P2
2023/11/03 00:02:20;;;;;;;3.85;1.70;;;8.90;99.90;;;;;;5120357;28;20422;-94
2023/11/03 00:04:46;;;;;;;8.23;1.85;;;8.80;99.90;;;;;;5120810;28;20024;-95
2023/11/03 00:07:13;;;;;;;9.57;1.42;;;8.90;99.90;;;;;;5120413;28;20043;-94
2023/11/03 00:09:40;;;;;;;4.75;1.65;;;8.90;99.90;;;;;;5121836;28;20024;-94
2023/11/03 00:12:07;;;;;;;8.77;2.08;;;8.80;99.90;;;;;;5120708;28;20047;-94
2023/11/03 00:14:33;;;;;;;3.17;1.30;;;8.80;99.90;;;;;;5121140;28;20027;-96
2023/11/03 00:16:59;;;;;;;5.38;1.40;;;8.80;99.90;;;;;;5121052;28;20016;-93
2023/11/03 00:19:26;;;;;;;3.47;1.75;;;8.80;99.90;;;;;;5120163;28;20039;-93
2023/11/03 00:21:52;;;;;;;4.10;1.77;;;8.80;99.90;;;;;;5119972;28;20045;-94
2023/11/03 00:24:19;;;;;;;6.65;1.58;;;8.80;99.90;;;;;;5121714;28;20049;-94
2023/11/03 00:26:47;;;;;;;6.75;1.70;;;8.80;99.90;;;;;;5121085;28;20114;-93
2023/11/03 00:29:15;;;;;;;7.15;1.77;;;8.80;99.90;;;;;;5121525;28;20028;-94
2023/11/03 00:31:45;;;;;;;4.63;1.80;;;8.80;99.90;;;;;;5122871;28;20127;-95
2023/11/03 00:34:13;;;;;;;6.13;1.60;;;8.80;99.90;;;;;;5122318;28;20032;-95
2023/11/03 00:36:39;;;;;;;7.63;1.58;;;8.80;99.90;;;;;;5122395;28;20020;-94
2023/11/03 00:39:07;;;;;;;6.40;1.83;;;8.80;99.90;;;;;;5121164;28;20040;-95
2023/11/03 00:41:33;;;;;;;5.20;1.40;;;8.80;99.90;;;;;;5120340;28;20097;-93
2023/11/03 00:43:58;;;;;;;4.20;0.90;;;8.80;99.90;;;;;;5120593;28;20030;-94
2023/11/03 00:46:24;;;;;;;3.78;1.42;;;8.70;99.90;;;;;;5121854;28;20111;-93
2023/11/03 00:48:50;;;;;;;4.03;1.30;;;8.80;99.90;;;;;;5130482;28;20028;-93
2023/11/03 00:51:15;;;;;;;7.22;1.25;;;8.70;99.90;;;;;;5120765;28;20066;-93
2023/11/03 00:53:41;;;;;;;6.68;1.98;;;8.70;99.90;;;;;;5125608;28;20027;-93
2023/11/03 00:56:07;;;;;;;6.35;1.10;;;8.70;99.90;;;;;;5121844;28;20051;-93
2023/11/03 00:58:35;;;;;;;4.75;1.25;;;8.70;99.90;;;;;;5120387;28;20039;-95
2023/11/03 01:01:03;;;;;;;3.42;1.20;;;8.70;99.90;;;;;;5119534;28;20034;-93
2023/11/03 01:03:29;;;;;;;3.60;1.60;;;8.70;99.90;;;;;;5119794;28;20065;-95
2023/11/03 01:05:54;;;;;;;3.42;1.25;;;8.70;99.90;;;;;;5119620;28;20020;-95
2023/11/03 01:08:22;;;;;;;4.80;1.33;;;8.70;99.90;;;;;;5120280;28;20031;-94
2023/11/03 01:10:49;;;;;;;7.28;1.20;;;8.60;99.90;;;;;;5119385;28;20016;-93
2023/11/03 01:13:15;;;;;;;2.88;0.93;;;8.60;99.90;;;;;;5120064;28;20027;-94
2023/11/03 01:15:43;;;;;;;4.20;1.23;;;8.60;99.90;;;;;;5119876;28;20016;-93
2023/11/03 01:18:09;;;;;;;7.22;1.05;;;8.50;99.90;;;;;;5120213;28;20050;-94
2023/11/03 01:20:35;;;;;;;5.32;1.48;;;8.50;99.90;;;;;;5120300;28;20035;-95
2023/11/03 01:23:02;;;;;;;2.58;1.00;;;8.50;99.90;;;;;;5121138;28;20164;-95
2023/11/03 01:25:32;;;;;;;3.17;0.80;;;8.50;99.90;;;;;;5123927;28;20042;-96
2023/11/03 01:27:59;;;;;;;7.10;1.10;;;8.50;99.90;;;;;;5123389;28;20123;-93
2023/11/03 01:30:25;;;;;;;6.85;1.35;;;8.50;99.90;;;;;;5124761;28;20024;-93
2023/11/03 01:32:55;;;;;;;4.88;0.93;;;8.50;99.90;;;;;;5122790;28;20019;-93
2023/11/03 01:35:26;;;;;;;5.05;1.17;;;8.60;99.90;;;;;;5122971;28;20472;-95
2023/11/03 01:37:53;;;;;;;8.65;1.30;;;8.60;99.90;;;;;;5121646;28;20556;-95
2023/11/03 01:40:20;;;;;;;5.45;1.67;;;8.60;99.90;;;;;;5121331;28;20047;-95
2023/11/03 01:42:49;;;;;;;6.50;1.10;;;8.60;99.90;;;;;;5124490;28;20040;-96
2023/11/03 01:45:15;;;;;;;4.65;1.25;;;8.60;99.90;;;;;;5124786;28;20019;-95
2023/11/03 01:47:41;;;;;;;5.35;1.10;;;8.60;99.90;;;;;;5121623;28;20028;-94
2023/11/03 01:50:09;;;;;;;6.45;1.23;;;8.60;99.90;;;;;;5120776;28;20024;-93
2023/11/03 01:52:38;;;;;;;3.78;1.00;;;8.60;99.90;;;;;;5120190;28;20027;-94
2023/11/03 01:55:06;;;;;;;4.22;0.90;;;8.70;99.90;;;;;;5121054;28;20023;-94
2023/11/03 01:57:33;;;;;;;8.23;1.48;;;8.70;99.90;;;;;;5125064;28;20028;-94
2023/11/03 01:59:59;;;;;;;3.42;0.90;;;8.60;99.90;;;;;;5126284;28;20016;-95
2023/11/03 02:02:27;;;;;;;6.78;0.95;;;8.70;99.90;;;;;;5124685;28;20027;-94
2023/11/03 02:04:53;;;;;;;9.77;1.75;;;8.70;99.90;;;;;;5124418;28;20123;-95
2023/11/03 02:07:18;;;;;;;4.72;1.10;;;8.70;99.90;;;;;;5125181;28;20024;-94
2023/11/03 02:09:44;;;;;;;10.00;1.50;;;8.70;99.90;;;;;;5123895;28;20036;-94
2023/11/03 02:12:11;;;;;;;6.55;1.30;;;8.70;99.90;;;;;;5122839;28;20112;-95
2023/11/03 02:14:37;;;;;;;4.53;1.35;;;8.70;99.90;;;;;;5123020;28;20031;-95
2023/11/03 02:17:03;;;;;;;6.65;1.40;;;8.70;99.90;;;;;;5123883;28;20100;-96
2023/11/03 02:19:30;;;;;;;2.95;1.42;;;8.70;99.90;;;;;;5124296;28;20023;-94
2023/11/03 02:21:56;;;;;;;6.35;2.08;;;8.70;99.90;;;;;;5123354;28;20032;-93
2023/11/03 02:24:22;;;;;;;9.32;1.60;;;8.70;99.90;;;;;;5123980;28;20084;-94
2023/11/03 02:26:48;;;;;;;8.90;1.50;;;8.70;99.90;;;;;;5124523;28;20041;-93
2023/11/03 02:29:13;;;;;;;3.38;1.05;;;8.70;99.90;;;;;;5124400;28;20126;-94
2023/11/03 02:31:40;;;;;;;4.22;1.88;;;8.70;99.90;;;;;;5122648;28;20024;-92
2023/11/03 02:34:06;;;;;;;7.32;1.55;;;8.70;99.90;;;;;;5122290;28;20068;-93
2023/11/03 02:36:33;;;;;;;10.27;1.58;;;8.70;99.90;;;;;;5122530;28;20023;-94
2023/11/03 02:38:59;;;;;;;6.25;1.17;;;8.70;99.90;;;;;;5122469;28;20047;-95
2023/11/03 02:41:25;;;;;;;3.85;1.00;;;8.70;99.90;;;;;;5122453;28;20054;-95
2023/11/03 02:43:51;;;;;;;4.93;1.60;;;8.70;99.90;;;;;;5122390;28;20036;-94
2023/11/03 02:46:17;;;;;;;8.50;1.40;;;8.70;99.90;;;;;;5122266;28;20054;-93
2023/11/03 02:48:43;;;;;;;4.55;0.90;;;8.70;99.90;;;;;;5122265;28;20023;-94
2023/11/03 02:51:08;;;;;;;7.07;1.48;;;8.70;99.90;;;;;;5121727;28;20035;-94
2023/11/03 02:53:34;;;;;;;5.38;1.08;;;8.70;99.90;;;;;;5121668;28;20016;-94
2023/11/03 02:56:00;;;;;;;5.85;1.38;;;8.70;99.90;;;;;;5122319;28;20484;-94
2023/11/03 02:58:28;;;;;;;7.00;1.40;;;8.70;99.90;;;;;;5122846;28;20035;-93
2023/11/03 03:00:54;;;;;;;5.60;1.05;;;8.70;99.90;;;;;;5121857;28;20123;-95
2023/11/03 03:03:20;;;;;;;6.20;1.23;;;8.70;99.90;;;;;;5121116;28;20039;-94
2023/11/03 03:05:46;;;;;;;3.47;1.08;;;8.70;99.90;;;;;;5121105;28;20484;-93
2023/11/03 03:08:11;;;;;;;2.83;1.05;;;8.70;99.90;;;;;;5120728;28;20103;-94
2023/11/03 03:10:37;;;;;;;2.05;0.95;;;8.70;99.90;;;;;;5121635;28;20034;-94
2023/11/03 03:13:04;;;;;;;7.78;1.00;;;8.70;99.90;;;;;;5120941;28;20055;-93
2023/11/03 03:15:30;;;;;;;1.63;0.75;;;8.70;99.90;;;;;;5121164;28;20084;-93
2023/11/03 03:17:55;;;;;;;8.93;2.00;;;8.70;99.90;;;;;;5121531;28;20031;-96
2023/11/03 03:20:22;;;;;;;2.38;0.88;;;8.70;99.90;;;;;;5121626;28;20019;-94
2023/11/03 03:22:48;;;;;;;4.68;1.33;;;8.70;99.90;;;;;;5121897;28;20031;-95
2023/11/03 03:25:14;;;;;;;3.58;0.93;;;8.70;99.90;;;;;;5123417;28;20381;-93
2023/11/03 03:27:40;;;;;;;4.20;1.10;;;8.70;99.90;;;;;;5124449;28;20057;-95
2023/11/03 03:30:07;;;;;;;5.15;1.13;;;8.70;99.90;;;;;;5124481;28;20020;-95
2023/11/03 03:32:32;;;;;;;2.45;1.00;;;8.70;99.90;;;;;;5124854;28;20032;-94
2023/11/03 03:34:58;;;;;;;3.83;1.38;;;8.70;99.90;;;;;;5121266;28;20062;-94
2023/11/03 03:37:24;;;;;;;2.42;0.93;;;8.70;99.90;;;;;;5122318;28;20030;-94
2023/11/03 03:39:50;;;;;;;7.10;0.90;;;8.70;99.90;;;;;;5121045;28;20039;-95
2023/11/03 03:42:15;;;;;;;9.07;1.40;;;8.70;99.90;;;;;;5120440;28;20060;-95
2023/11/03 03:44:42;;;;;;;4.18;0.98;;;8.70;99.90;;;;;;5120848;28;20051;-95
2023/11/03 03:47:09;;;;;;;7.30;1.08;;;8.70;99.90;;;;;;5120413;28;20027;-93
2023/11/03 03:49:35;;;;;;;5.97;1.10;;;8.70;99.90;;;;;;5120794;28;20023;-94
2023/11/03 03:52:02;;;;;;;6.25;1.42;;;8.70;99.90;;;;;;5120333;28;20163;-95
2023/11/03 03:54:28;;;;;;;4.68;1.33;;;8.70;99.90;;;;;;5121126;28;20131;-95
2023/11/03 03:56:54;;;;;;;3.75;0.82;;;8.70;99.90;;;;;;5121738;28;20039;-94
2023/11/03 03:59:19;;;;;;;4.55;1.00;;;8.70;99.90;;;;;;5120978;28;20077;-95
2023/11/03 04:01:46;;;;;;;4.05;1.17;;;8.70;99.90;;;;;;5120945;28;20033;-94
2023/11/03 04:04:12;;;;;;;5.50;0.50;;;8.70;99.90;;;;;;5120323;28;20039;-93
2023/11/03 04:06:38;;;;;;;5.28;0.88;;;8.70;99.90;;;;;;5120781;28;20326;-94
2023/11/03 04:09:04;;;;;;;3.47;0.80;;;8.70;99.90;;;;;;5123245;28;20024;-93
2023/11/03 04:11:29;;;;;;;2.85;0.80;;;8.60;99.90;;;;;;5127007;28;20024;-93
2023/11/03 04:13:55;;;;;;;4.38;1.10;;;8.70;99.90;;;;;;5126894;28;20034;-93
2023/11/03 04:16:22;;;;;;;2.13;0.80;;;8.70;99.90;;;;;;5122235;28;20051;-95
2023/11/03 04:18:48;;;;;;;2.38;0.82;;;8.60;99.90;;;;;;5118557;28;20023;-94
2023/11/03 04:21:14;;;;;;;3.97;0.70;;;8.60;99.90;;;;;;5120626;28;20045;-95
2023/11/03 04:23:40;;;;;;;4.00;0.80;;;8.70;99.90;;;;;;5120444;28;20038;-94
2023/11/03 04:26:05;;;;;;;2.47;0.85;;;8.70;99.90;;;;;;5120090;28;20036;-94
2023/11/03 04:28:33;;;;;;;5.28;1.17;;;8.60;99.90;;;;;;5119365;28;20024;-95
2023/11/03 04:30:59;;;;;;;3.92;1.00;;;8.70;99.90;;;;;;5120454;28;20027;-94
2023/11/03 04:33:24;;;;;;;7.78;1.67;;;8.70;99.90;;;;;;5119937;28;20027;-93
2023/11/03 04:35:50;;;;;;;4.35;0.95;;;8.70;99.90;;;;;;5119349;28;20032;-93
2023/11/03 04:38:16;;;;;;;5.45;1.05;;;8.70;99.90;;;;;;5119682;28;20073;-95
2023/11/03 04:40:41;;;;;;;3.25;0.98;;;8.70;99.90;;;;;;5119328;28;20091;-94
2023/11/03 04:43:07;;;;;;;5.85;1.02;;;8.60;99.90;;;;;;5119989;28;20038;-94
2023/11/03 04:45:33;;;;;;;3.95;0.88;;;8.60;99.90;;;;;;5119879;28;20016;-95
2023/11/03 04:47:58;;;;;;;5.57;1.15;;;8.60;99.90;;;;;;5119900;28;20024;-94
2023/11/03 04:50:24;;;;;;;9.05;1.60;;;8.60;99.90;;;;;;5119593;28;20047;-93
2023/11/03 04:52:50;;;;;;;3.33;1.15;;;8.60;99.90;;;;;;5119994;28;20043;-94
2023/11/03 04:55:15;;;;;;;4.80;1.30;;;8.60;99.90;;;;;;5119282;28;20457;-95
2023/11/03 04:57:41;;;;;;;2.85;2.30;;;8.60;99.90;;;;;;5119636;28;20081;-95
2023/11/03 05:00:10;;;;;;;3.95;1.65;;;8.60;99.90;;;;;;5119356;28;20034;-95
2023/11/03 05:02:36;;;;;;;3.88;2.13;;;8.60;99.90;;;;;;5119738;28;20072;-95
2023/11/03 05:05:06;;;;;;;12.85;3.80;;;8.60;99.90;;;;;;5122485;28;20115;-94
2023/11/03 05:07:33;;;;;;;7.00;2.72;;;8.60;99.90;;;;;;5130186;28;20040;-93
2023/11/03 05:09:59;;;;;;;6.25;3.00;;;8.50;99.90;;;;;;5128722;28;20039;-92
2023/11/03 05:12:25;;;;;;;6.75;2.60;;;8.50;99.90;;;;;;5131844;28;20110;-95
2023/11/03 05:14:51;;;;;;;5.32;2.78;;;8.50;99.90;;;;;;5123551;28;20424;-93
2023/11/03 05:17:16;;;;;;;5.20;2.88;;;8.50;99.90;;;;;;5125612;28;20020;-94
2023/11/03 05:19:42;;;;;;;10.15;2.90;;;8.50;99.90;;;;;;5120830;28;20024;-93
2023/11/03 05:22:09;;;;;;;10.93;3.33;;;8.40;99.90;;;;;;5119006;28;20084;-95
2023/11/03 05:24:35;;;;;;;5.30;2.83;;;8.40;99.90;;;;;;5120089;28;20039;-94
2023/11/03 05:27:01;;;;;;;6.10;2.65;;;8.40;99.90;;;;;;5119661;28;20028;-95
2023/11/03 05:29:27;;;;;;;6.57;2.90;;;8.40;99.90;;;;;;5119021;28;20024;-93
2023/11/03 05:31:53;;;;;;;12.18;3.10;;;8.40;99.90;;;;;;5122501;28;20504;-95
2023/11/03 05:34:19;;;;;;;13.77;4.55;;;8.40;99.90;;;;;;5123169;28;20019;-95
2023/11/03 05:36:45;;;;;;;7.75;3.47;;;8.40;99.90;;;;;;5123442;28;20023;-94
2023/11/03 05:39:12;;;;;;;6.60;3.08;;;8.40;99.90;;;;;;5123312;28;20085;-95
2023/11/03 05:41:38;;;;;;;5.45;2.80;;;8.30;99.90;;;;;;5122865;28;20146;-94
2023/11/03 05:44:04;;;;;;;7.85;3.10;;;8.30;99.90;;;;;;5123091;28;20098;-93
2023/11/03 05:46:30;;;;;;;7.60;3.95;;;8.30;99.90;;;;;;5122877;28;20100;-94
2023/11/03 05:48:56;;;;;;;6.88;2.80;;;8.40;99.90;;;;;;5122432;28;20069;-94
2023/11/03 05:51:22;;;;;;;5.22;2.47;;;8.30;99.90;;;;;;5123137;28;20024;-94
2023/11/03 05:53:48;;;;;;;5.57;2.40;;;8.40;99.90;;;;;;5123079;28;20102;-94
2023/11/03 05:56:15;;;;;;;11.02;2.88;;;8.40;99.90;;;;;;5122766;28;20019;-93
2023/11/03 05:58:41;;;;;;;7.35;3.05;;;8.40;99.90;;;;;;5123030;28;20024;-95
2023/11/03 06:01:07;;;;;;;6.82;2.45;;;8.40;99.90;;;;;;5122804;28;20023;-94
2023/11/03 06:03:34;;;;;;;8.70;2.75;;;8.40;99.90;;;;;;5122803;28;20032;-94
2023/11/03 06:06:00;;;;;;;7.90;2.58;;;8.40;99.90;;;;;;5123121;28;20509;-95
2023/11/03 06:08:26;;;;;;;4.85;2.67;;;8.40;99.90;;;;;;5123056;28;20058;-94
2023/11/03 06:10:52;;;;;;;9.70;2.55;;;8.40;99.90;;;;;;5122453;28;20020;-95
2023/11/03 06:13:18;;;;;;;8.32;2.10;;;8.40;99.90;;;;;;5122535;28;20028;-95
2023/11/03 06:15:44;;;;;;;6.07;2.03;;;8.40;99.90;;;;;;5122551;28;20481;-95
2023/11/03 06:18:09;;;;;;;6.32;2.30;;;8.50;99.90;;;;;;5122296;28;20027;-95
2023/11/03 06:20:36;;;;;;;4.95;1.80;;;8.50;99.90;;;;;;5122792;28;20091;-95
2023/11/03 06:23:01;;;;;;;6.70;1.77;;;8.50;99.90;;;;;;5122696;28;20082;-95
2023/11/03 06:25:29;;;;;;;8.50;2.00;;;8.50;99.90;;;;;;5123091;28;20035;-94
2023/11/03 06:27:55;;;;;;;5.88;1.60;;;8.50;99.90;;;;;;5122907;28;20023;-94
2023/11/03 06:30:21;;;;;;;8.43;2.00;;;8.50;99.90;;;;;;5122655;28;20102;-94
2023/11/03 06:32:47;;;;;;;9.77;2.55;;;8.50;99.90;;;;;;5122292;28;20058;-96
2023/11/03 06:35:13;;;;;;;5.38;2.13;;;8.50;99.90;;;;;;5122437;28;20598;-95
2023/11/03 06:37:39;;;;;;;5.55;1.75;;;8.50;99.90;;;;;;5123010;28;20030;-94
2023/11/03 06:40:05;;;;;;;6.05;2.00;;;8.50;99.90;;;;;;5122686;28;20070;-94
2023/11/03 06:42:31;;;;;;;7.05;2.10;;;8.50;99.90;;;;;;5121130;28;20027;-94
2023/11/03 06:44:57;;;;;;;9.48;2.47;;;8.50;99.90;;;;;;5122002;28;20034;-95
2023/11/03 06:47:22;;;;;;;6.35;2.10;;;8.60;99.90;;;;;;5122164;28;20035;-96
2023/11/03 06:49:48;;;;;;;6.20;1.92;;;8.50;99.90;;;;;;5122376;28;20024;-95
2023/11/03 06:52:14;;;;;;;8.07;1.85;;;8.60;99.90;;;;;;5122194;28;20028;-95
2023/11/03 06:54:43;;;;;;;5.18;2.10;;;8.60;99.90;;;;;;5123299;28;20044;-95
2023/11/03 06:57:09;;;;;;;10.65;2.10;;;8.60;99.90;;;;;;5122242;28;20093;-95
2023/11/03 06:59:34;;;;;;;6.18;2.05;;;8.60;99.90;;;;;;5122372;28;20027;-95
2023/11/03 07:02:00;;;;;;;4.68;2.03;;;8.60;99.90;;;;;;5122363;28;20034;-95
2023/11/03 07:04:26;;;;;;;9.98;3.05;;;8.60;99.90;;;;;;5122568;28;20369;-93
2023/11/03 07:06:52;;;;;;;3.83;1.70;;;8.70;99.90;;;;;;5122364;28;20019;-94
2023/11/03 07:09:20;;;;;;;9.82;2.45;;;8.60;99.90;;;;;;5124905;28;20480;-95
2023/11/03 07:11:46;;;;;;;6.63;1.90;;;8.60;99.90;;;;;;5123911;28;20034;-93
2023/11/03 07:14:12;;;;;;;6.68;1.90;;;8.60;99.90;;;;;;5125556;28;20031;-93
2023/11/03 07:16:42;;;;;;;4.60;1.85;;;8.60;99.90;;;;;;5122365;28;20024;-94
2023/11/03 07:19:08;;;;;;;4.40;1.67;;;8.60;99.90;;;;;;5122326;28;20024;-95
2023/11/03 07:21:36;;;;;;;4.75;2.13;;;8.60;99.90;;;;;;5123845;28;20106;-94
2023/11/03 07:24:02;;;;;;;4.57;1.92;;;8.70;99.90;;;;;;5123047;28;20481;-93
2023/11/03 07:26:30;;;;;;;6.78;1.90;;;8.60;99.90;;;;;;5122897;28;20030;-94
2023/11/03 07:28:55;;;;;;;6.95;2.60;;;8.60;99.90;;;;;;5121571;28;20092;-94
2023/11/03 07:31:21;;;;;;;8.13;1.98;;;8.60;99.90;;;;;;5122059;28;20019;-94
2023/11/03 07:33:47;;;;;;;6.75;1.70;;;8.60;99.90;;;;;;5121751;28;20035;-94
2023/11/03 07:36:13;;;;;;;6.05;1.67;;;8.60;99.90;;;;;;5123342;28;20106;-93
2023/11/03 07:38:39;;;;;;;3.40;1.90;;;8.60;99.90;;;;;;5127722;28;20032;-95
2023/11/03 07:41:07;;;;;;;7.60;1.80;;;8.60;99.90;;;;;;5129721;28;20103;-95
2023/11/03 07:43:36;;;;;;;7.38;1.33;;;8.60;99.90;;;;;;5124852;28;20119;-95
2023/11/03 07:46:02;;;;;;;6.22;1.65;;;8.60;99.90;;;;;;5124577;28;20016;-93
2023/11/03 07:48:27;;;;;;;6.68;1.45;;;8.60;99.90;;;;;;5122593;28;20043;-95
2023/11/03 07:50:53;;;;;;;7.30;1.50;;;8.60;99.90;;;;;;5122888;28;20020;-94
2023/11/03 07:53:19;;;;;;;6.22;1.40;;;8.60;99.90;;;;;;5121737;28;20037;-94
2023/11/03 07:55:45;;;;;;;6.57;1.50;;;8.60;99.90;;;;;;5122634;28;20027;-94
2023/11/03 07:58:10;;;;;;;4.78;1.20;;;8.70;99.90;;;;;;5121818;28;20020;-94
2023/11/03 08:00:36;;;;;;;8.55;1.50;;;8.70;99.90;;;;;;5122146;28;20023;-93
2023/11/03 08:03:07;;;;;;;8.15;1.83;;;8.70;99.90;;;;;;5123577;28;20043;-94
2023/11/03 08:05:34;;;;;;;7.18;1.75;;;8.70;99.90;;;;;;5121388;28;20492;-95
2023/11/03 08:08:01;;;;;;;7.35;1.70;;;8.70;99.90;;;;;;5121005;28;20024;-95
2023/11/03 08:10:27;;;;;;;6.70;1.33;;;8.70;99.90;;;;;;5120935;28;20460;-95
2023/11/03 08:12:54;;;;;;;7.10;1.75;;;8.80;99.90;;;;;;5120313;28;20059;-94
2023/11/03 08:15:20;;;;;;;8.80;1.90;;;8.80;99.90;;;;;;5121349;28;20023;-94
2023/11/03 08:17:46;;;;;;;5.25;1.83;;;8.80;99.90;;;;;;5121400;28;20038;-94
2023/11/03 08:20:15;;;;;;;9.18;1.65;;;8.80;99.90;;;;;;5120865;28;20024;-94
2023/11/03 08:22:42;;;;;;;3.75;1.30;;;8.80;99.90;;;;;;5121014;28;20031;-95
2023/11/03 08:25:08;;;;;;;4.60;1.95;;;8.90;99.90;;;;;;5120585;28;20068;-95
2023/11/03 08:27:35;;;;;;;6.40;1.95;;;8.90;99.90;;;;;;5120495;28;20020;-96
2023/11/03 08:30:03;;;;;;;7.82;1.67;;;8.90;99.90;;;;;;5121242;28;20024;-95
2023/11/03 08:32:30;;;;;;;8.95;1.83;;;9.00;99.90;;;;;;5120872;28;20030;-95
2023/11/03 08:34:56;;;;;;;11.90;2.92;;;9.00;99.90;;;;;;5120913;28;20028;-94
2023/11/03 08:37:22;;;;;;;3.70;1.63;;;9.10;99.90;;;;;;5121488;28;20053;-96
2023/11/03 08:39:51;;;;;;;8.68;1.90;;;9.10;99.90;;;;;;5121079;28;20020;-95
2023/11/03 08:42:17;;;;;;;13.20;2.10;;;9.10;99.90;;;;;;5121650;28;20045;-94
2023/11/03 08:44:44;;;;;;;7.25;1.98;;;9.10;99.90;;;;;;5123793;28;20020;-95
2023/11/03 08:47:09;;;;;;;7.75;1.90;;;9.20;99.90;;;;;;5123556;28;20028;-95
2023/11/03 08:49:35;;;;;;;5.82;2.28;;;9.20;99.90;;;;;;5119144;28;20055;-94
2023/11/03 08:52:01;;;;;;;6.25;3.03;;;9.20;99.90;;;;;;5115508;28;20019;-96
2023/11/03 08:54:27;;;;;;;4.85;1.70;;;9.20;99.90;;;;;;5114311;28;20045;-94
2023/11/03 08:56:54;;;;;;;6.13;1.95;;;9.20;99.90;;;;;;5113870;28;20486;-96
2023/11/03 08:59:19;;;;;;;5.65;2.45;;;9.20;99.90;;;;;;5113896;28;20126;-95
2023/11/03 09:01:45;;;;;;;9.57;2.38;;;9.20;99.90;;;;;;5113899;28;20055;-94
2023/11/03 09:04:11;;;;;;;5.45;2.00;;;9.20;99.90;;;;;;5113700;28;20020;-95
2023/11/03 09:06:37;;;;;;;5.75;2.47;;;9.20;99.90;;;;;;5113711;28;20031;-95
2023/11/03 09:09:04;;;;;;;8.20;2.55;;;9.20;99.90;;;;;;5113520;28;20027;-95
2023/11/03 09:11:30;;;;;;;8.00;2.53;;;9.30;99.90;;;;;;5113590;28;20046;-94
2023/11/03 09:13:59;;;;;;;6.72;2.40;;;9.30;99.90;;;;;;5114292;28;20020;-95
2023/11/03 09:16:24;;;;;;;7.00;2.22;;;9.30;99.90;;;;;;5116667;28;20027;-95
2023/11/03 09:18:52;;;;;;;12.57;2.78;;;9.30;99.90;;;;;;5110938;22;20044;-94
2023/11/03 09:21:18;;;;;;;14.77;3.30;;;9.30;99.90;;;;;;5073686;28;20122;-94
2023/11/03 09:23:44;;;;;;;4.65;2.17;;;9.30;99.90;;;;;;5074140;28;20052;-93
2023/11/03 09:26:10;;;;;;;11.35;3.03;;;9.30;99.90;;;;;;5076369;28;20028;-94
2023/11/03 09:28:36;;;;;;;7.88;3.08;;;9.30;99.90;;;;;;5078026;28;20029;-94
2023/11/03 09:31:02;;;;;;;10.70;3.03;;;9.30;99.90;;;;;;5081607;28;20504;-93
2023/11/03 09:33:28;;;;;;;12.23;3.25;;;9.30;99.90;;;;;;5088090;28;20025;-93
2023/11/03 09:35:54;;;;;;;6.75;3.22;;;9.20;99.90;;;;;;5090617;28;20047;-93
2023/11/03 09:38:20;;;;;;;7.15;3.10;;;9.20;99.90;;;;;;5083000;28;20107;-93
2023/11/03 09:40:46;;;;;;;10.73;3.05;;;9.20;99.90;;;;;;5083513;28;20029;-94
2023/11/03 09:43:15;;;;;;;8.45;3.35;;;9.20;99.90;;;;;;5073136;28;20127;-95
2023/11/03 09:45:42;;;;;;;4.85;2.85;;;9.20;99.90;;;;;;5072854;28;20043;-94
2023/11/03 09:48:08;;;;;;;6.68;2.60;;;9.20;99.90;;;;;;5073452;28;20033;-94
2023/11/03 09:50:35;;;;;;;8.10;2.83;;;9.20;99.90;;;;;;5073949;28;20021;-93
2023/11/03 09:53:15;;;;;;;7.00;2.97;;;9.20;99.90;;;;;;5074398;28;20029;-93
2023/11/03 09:55:42;;;;;;;7.63;2.70;;;9.20;99.90;;;;;;5074371;28;20021;-95
2023/11/03 09:58:08;;;;;;;9.45;3.17;;;9.20;99.90;;;;;;5074452;28;20032;-93
2023/11/03 10:00:34;;;;;;;6.88;2.30;;;9.30;99.90;;;;;;5077755;28;20052;-93
2023/11/03 10:03:00;;;;;;;10.23;2.28;;;9.30;99.90;;;;;;5085792;28;20037;-93
2023/11/03 10:05:29;;;;;;;5.50;2.20;;;9.40;99.90;;;;;;5073415;28;20063;-95
2023/11/03 10:08:05;;;;;;;8.43;2.65;;;9.50;99.90;;;;;;5072957;28;20090;-96
2023/11/03 10:10:36;;;;;;;11.80;1.90;;;9.80;99.90;;;;;;5073407;28;20088;-95
2023/11/03 10:13:10;;;;;;;11.82;3.47;;;10.00;99.90;;;;;;5074274;28;20020;-95
2023/11/03 10:15:39;;;;;;;8.05;1.67;;;10.40;99.90;;;;;;5089417;28;20029;-95
2023/11/03 10:18:05;;;;;;;9.15;2.63;;;10.70;99.90;;;;;;5078895;28;20051;-95
2023/11/03 10:20:30;;;;;;;8.80;2.40;;;11.00;99.90;;;;;;5095939;28;20020;-96
2023/11/03 10:22:56;;;;;;;8.48;2.78;;;11.40;99.90;;;;;;5096626;28;20044;-95
2023/11/03 10:25:26;;;;;;;3.28;2.15;;;11.70;99.90;;;;;;5095609;28;20046;-93
2023/11/03 10:27:56;;;;;;;4.90;2.75;;;12.00;99.90;;;;;;5095278;28;20077;-95
2023/11/03 10:30:29;;;;;;;6.43;2.90;;;12.20;99.90;;;;;;5096300;28;20115;-94
2023/11/03 10:32:55;;;;;;;5.72;3.05;;;12.50;99.90;;;;;;5096209;28;20039;-95
2023/11/03 10:35:21;;;;;;;10.95;2.80;;;12.70;99.90;;;;;;5095595;28;20028;-96
2023/11/03 10:37:47;;;;;;;4.65;2.40;;;13.00;99.90;;;;;;5096732;28;20036;-95
2023/11/03 10:40:13;;;;;;;5.78;2.38;;;13.20;99.90;;;;;;5097464;28;20085;-95
2023/11/03 10:42:51;;;;;;;11.60;2.92;;;13.30;99.90;;;;;;5096046;28;20032;-94
2023/11/03 10:45:20;;;;;;;5.93;2.58;;;13.30;99.90;;;;;;5095960;28;20070;-94
2023/11/03 10:48:09;;;;;;;7.65;3.75;;;13.30;99.90;;;;;;5095187;28;20058;-96
2023/11/03 10:50:41;;;;;;;11.85;2.42;;;13.30;99.90;;;;;;5095185;28;20028;-94
2023/11/03 10:53:28;;;;;;;7.68;2.40;;;13.30;99.90;;;;;;5094954;28;20426;-94
2023/11/03 10:56:10;;;;;;;6.63;2.40;;;13.20;99.90;;;;;;5095477;28;20456;-92
2023/11/03 10:58:37;;;;;;;5.00;2.10;;;13.10;99.90;;;;;;5094513;28;20627;-93
2023/11/03 11:01:17;;;;;;;8.73;2.47;;;13.00;99.90;;;;;;5094430;28;20085;-94
2023/11/03 11:04:07;;;;;;;9.88;2.70;;;13.00;99.90;;;;;;5094021;28;20032;-95
2023/11/03 11:06:50;;;;;;;9.23;2.55;;;13.00;99.90;;;;;;5094327;28;20028;-94
2023/11/03 11:09:29;;;;;;;3.83;1.88;;;13.20;99.90;;;;;;5094680;28;20028;-94
2023/11/03 11:12:02;;;;;;;5.40;2.03;;;13.30;99.90;;;;;;5094406;28;20016;-94
2023/11/03 11:14:32;;;;;;;6.60;1.90;;;13.40;99.90;;;;;;5094244;28;20039;-95
2023/11/03 11:16:58;;;;;;;6.45;2.00;;;13.40;99.90;;;;;;5094583;28;20046;-95
2023/11/03 11:19:45;;;;;;;4.20;1.55;;;13.50;99.90;;;;;;5094848;28;20404;-95
2023/11/03 11:22:15;;;;;;;5.15;1.65;;;13.70;99.90;;;;;;5094510;28;20043;-96
2023/11/03 11:24:41;;;;;;;5.37;1.60;;;14.10;99.90;;;;;;5095919;28;20040;-94
2023/11/03 11:27:23;;;;;;;3.10;1.10;;;14.40;99.90;;;;;;5094348;28;20020;-94
2023/11/03 11:29:50;;;;;;;7.50;2.17;;;14.40;99.90;;;;;;5093788;28;20047;-93
2023/11/03 11:32:18;;;;;;;8.65;1.73;;;14.20;99.90;;;;;;5094287;28;20534;-94
2023/11/03 11:34:44;;;;;;;10.75;2.25;;;14.00;99.90;;;;;;5095434;28;20370;-95
2023/11/03 11:37:29;;;;;;;5.38;2.22;;;13.90;99.90;;;;;;5095988;28;20024;-94
2023/11/03 11:39:57;;;;;;;6.15;1.70;;;13.80;99.90;;;;;;5100660;28;20028;-94
2023/11/03 11:42:31;;;;;;;5.18;1.70;;;13.80;99.90;;;;;;5099882;28;20054;-93
2023/11/03 11:44:59;;;;;;;6.90;2.22;;;13.70;99.90;;;;;;5097142;28;20035;-94
2023/11/03 11:47:27;;;;;;;5.57;2.42;;;13.60;99.90;;;;;;5094489;28;20048;-94
2023/11/03 11:49:57;;;;;;;5.40;2.30;;;13.70;99.90;;;;;;5093912;28;20366;-94
2023/11/03 11:52:26;;;;;;;6.80;2.42;;;14.00;99.90;;;;;;5093848;28;20020;-94
2023/11/03 11:55:02;;;;;;;8.70;2.10;;;14.30;99.90;;;;;;5093579;28;20020;-94
2023/11/03 11:57:30;;;;;;;4.47;2.30;;;14.40;99.90;;;;;;5093517;28;20055;-95
2023/11/03 11:59:56;;;;;;;6.13;1.67;;;14.60;99.90;;;;;;5093491;28;20044;-94
2023/11/03 12:02:23;;;;;;;9.88;2.00;;;14.80;99.90;;;;;;5093502;28;20108;-95
2023/11/03 12:04:54;;;;;;;3.55;1.50;;;15.10;99.90;;;;;;5093315;28;20024;-96
2023/11/03 12:07:21;;;;;;;;;;;15.30;99.90;;;;;;5094959;28;20187;-95
2023/11/03 12:09:49;;;;;;;4.80;1.50;;;15.60;99.90;;;;;;5093455;28;20277;-94
2023/11/03 12:12:15;;;;;;;3.25;1.27;;;15.80;99.90;;;;;;5093157;28;20020;-95
2023/11/03 12:14:41;;;;;;;1.77;0.98;;;16.00;99.90;;;;;;5093470;28;20476;-94
2023/11/03 12:17:07;;;;;;;5.13;1.85;;;16.10;99.90;;;;;;5093149;28;20039;-95
2023/11/03 12:19:32;;;;;;;4.07;1.13;;;16.30;99.70;;;;;;5092497;28;20090;-95
2023/11/03 12:21:58;;;;;;;5.80;1.20;;;16.60;98.90;;;;;;5093613;28;20052;-96
2023/11/03 12:24:24;;;;;;;5.85;1.20;;;16.70;97.10;;;;;;5093198;28;20039;-94
2023/11/03 12:26:53;;;;;;;3.15;1.30;;;16.80;96.40;;;;;;5093270;28;20091;-94
2023/11/03 12:29:32;;;;;;;4.55;1.20;;;16.90;96.20;;;;;;5092812;28;20478;-95
2023/11/03 12:31:58;;;;;;;7.15;1.20;;;16.80;94.80;;;;;;5092814;28;20024;-93
2023/11/03 12:34:25;;;;;;;2.92;0.90;;;16.40;93.70;;;;;;5092858;28;20399;-94
2023/11/03 12:36:51;;;;;;;4.32;1.08;;;16.00;94.00;;;;;;5093250;28;20572;-95
2023/11/03 12:39:18;;;;;;;2.58;0.73;;;15.90;95.30;;;;;;5094921;28;20130;-96
2023/11/03 12:41:58;;;;;;;5.15;0.98;;;15.90;95.90;;;;;;5093381;28;20016;-93
2023/11/03 12:44:23;;;;;;;2.78;0.95;;;15.90;95.60;;;;;;5092928;28;20036;-93
2023/11/03 12:46:49;;;;;;;5.72;1.98;;;15.70;95.70;;;;;;5093171;28;20025;-94
2023/11/03 12:49:19;;;;;;;6.68;1.10;;;15.50;96.00;;;;;;5093108;28;20031;-94
2023/11/03 12:51:45;;;;;;;2.85;1.10;;;15.60;96.90;;;;;;5093410;28;20041;-95
2023/11/03 12:54:18;;;;;;;4.63;1.98;;;15.80;96.90;;;;;;5093385;28;20144;-95
2023/11/03 12:56:49;;;;;;;4.70;1.00;;;16.10;97.00;;;;;;5092972;28;20020;-93